Time;durP1;ratioP1;P1;durP2;ratioP2;P2;SDS_P1;SDS_P2;PMS_P1;PMS_P2;Temp;Humidity;BMP_temperature;BMP_pressure;BME280_temperature;BME280_humidity;BME280_pressure;Samples;Min_cycle;Max_cycle;Signal;HPM_P1;HPM_P2
2022/12/27 00:02:01;;;;;;;1999.90;999.90;;;;;;;2.57;100.00;100312.47;8379931;28;20470;-74
2022/12/27 00:06:12;;;;;;;1999.90;999.90;;;;;;;2.52;100.00;100308.84;8378802;28;20048;-74
2022/12/27 00:10:13;;;;;;;1999.90;999.90;;;;;;;2.48;100.00;100314.63;8373744;28;20040;-74
2022/12/27 00:14:15;;;;;;;1999.90;999.90;;;;;;;2.40;100.00;100316.00;8368816;28;20475;-74
2022/12/27 00:18:16;;;;;;;1999.90;999.90;;;;;;;2.36;100.00;100319.25;8356535;28;20075;-74
2022/12/27 00:22:18;;;;;;;1999.90;999.90;;;;;;;2.34;100.00;100320.88;8346595;28;20764;-74
2022/12/27 00:26:27;;;;;;;1999.90;999.90;;;;;;;2.33;100.00;100322.53;8358697;28;20449;-74
2022/12/27 00:30:30;;;;;;;1999.90;999.90;;;;;;;2.35;100.00;100322.63;8373934;28;20147;-74
2022/12/27 00:34:31;;;;;;;1999.90;999.90;;;;;;;2.34;100.00;100319.19;8806656;22;20060;-74
2022/12/27 00:38:33;;;;;;;1999.90;999.90;;;;;;;2.33;100.00;100322.53;8341101;28;20045;-74
2022/12/27 00:42:34;;;;;;;1999.90;999.90;;;;;;;2.30;100.00;100327.53;8361952;28;20041;-74
2022/12/27 00:46:35;;;;;;;1999.90;999.90;;;;;;;2.23;100.00;100329.78;8343914;28;20053;-74
2022/12/27 00:50:41;;;;;;;1999.90;999.90;;;;;;;2.23;100.00;100337.44;8326716;28;20045;-74
2022/12/27 00:54:43;;;;;;;1999.90;999.90;;;;;;;2.29;100.00;100338.59;8344896;28;20060;-74
2022/12/27 00:58:44;;;;;;;1999.90;999.90;;;;;;;2.28;100.00;100339.41;8336867;28;20040;-74
2022/12/27 01:02:46;;;;;;;1999.90;999.90;;;;;;;2.30;100.00;100332.66;8347317;28;20155;-74
2022/12/27 01:06:47;;;;;;;1999.90;999.90;;;;;;;2.21;100.00;100337.38;8356073;28;20094;-74
2022/12/27 01:10:49;;;;;;;1999.90;999.90;;;;;;;2.12;100.00;100332.72;8367593;28;20044;-74
2022/12/27 01:14:50;;;;;;;1999.90;999.90;;;;;;;2.13;100.00;100336.16;8361165;28;20036;-74
2022/12/27 01:18:52;;;;;;;1999.90;999.90;;;;;;;1.99;100.00;100345.81;8322612;28;20390;-74
2022/12/27 01:22:54;;;;;;;1999.90;999.90;;;;;;;1.94;100.00;100346.38;8318757;28;20135;-74
2022/12/27 01:26:55;;;;;;;1999.90;999.90;;;;;;;1.93;100.00;100349.75;8325368;28;20639;-74
2022/12/27 01:30:57;;;;;;;1999.90;999.90;;;;;;;1.97;100.00;100351.66;8321764;28;20041;-74
2022/12/27 01:34:58;;;;;;;1999.90;999.90;;;;;;;1.99;100.00;100355.19;8327234;28;20053;-72
2022/12/27 01:39:00;;;;;;;1999.90;999.90;;;;;;;1.93;100.00;100355.75;8341012;28;20191;-72
2022/12/27 01:43:01;;;;;;;1999.90;999.90;;;;;;;1.80;100.00;100356.91;8343521;28;20045;-72
2022/12/27 01:47:30;;;;;;;1999.90;999.90;;;;;;;1.76;100.00;100360.09;8308040;28;20695;-73
2022/12/27 01:51:31;;;;;;;1999.90;999.90;;;;;;;1.73;100.00;100356.53;8302100;28;20072;-72
2022/12/27 01:55:40;;;;;;;1999.90;999.90;;;;;;;1.66;100.00;100369.88;8344588;28;20072;-72
2022/12/27 01:59:42;;;;;;;1999.90;999.90;;;;;;;1.64;100.00;100379.16;8324951;28;20074;-72
2022/12/27 02:04:06;;;;;;;1999.90;999.90;;;;;;;1.58;100.00;100386.53;8314850;28;20110;-72
2022/12/27 02:08:35;;;;;;;1999.90;999.90;;;;;;;1.55;100.00;100389.81;8322018;28;20051;-72
2022/12/27 02:12:37;;;;;;;1999.90;999.90;;;;;;;1.53;100.00;100394.00;8336122;28;20051;-73
2022/12/27 02:16:38;;;;;;;1999.90;999.90;;;;;;;1.53;100.00;100394.00;8336486;28;20135;-73
2022/12/27 02:21:09;;;;;;;1999.90;999.90;;;;;;;1.56;100.00;100393.25;8304474;28;20205;-72
2022/12/27 02:25:28;;;;;;;1999.90;999.90;;;;;;;1.45;100.00;100397.88;8346845;28;20131;-72
2022/12/27 02:29:36;;;;;;;1999.90;999.90;;;;;;;1.43;100.00;100397.78;8338367;28;20050;-72
2022/12/27 02:33:45;;;;;;;1999.90;999.90;;;;;;;1.37;100.00;100392.38;8342169;28;20108;-72
2022/12/27 02:37:54;;;;;;;1999.90;999.90;;;;;;;1.41;100.00;100390.84;8311784;28;20632;-72
2022/12/27 03:04:46;;;;;;;;;;;;;;;1.47;100.00;100384.34;8437712;28;20058;-72
2022/12/27 03:09:07;;;;;;;1999.90;999.90;;;;;;;1.45;100.00;100385.97;8407502;28;20006;-72
2022/12/27 03:17:54;;;;;;;1999.90;999.90;;;;;;;1.41;100.00;100390.84;8411571;28;20433;-72
2022/12/27 03:26:17;;;;;;;1999.90;999.90;;;;;;;1.36;100.00;100397.44;8407474;28;20036;-72
2022/12/27 03:34:46;;;;;;;1999.90;999.90;;;;;;;1.25;100.00;100401.13;8432502;28;20064;-72
2022/12/27 03:38:58;;;;;;;1999.90;999.90;;;;;;;1.22;100.00;100399.31;8433863;28;20047;-73
2022/12/27 03:43:10;;;;;;;1999.90;999.90;;;;;;;1.21;100.00;100398.44;8423633;28;20051;-73
2022/12/27 03:47:19;;;;;;;1999.90;999.90;;;;;;;1.17;100.00;100404.22;8431345;28;20043;-74
2022/12/27 03:51:24;;;;;;;1999.90;999.90;;;;;;;1.05;100.00;100406.16;8456221;28;20126;-74
2022/12/27 03:55:26;;;;;;;1999.90;999.90;;;;;;;0.97;100.00;100410.00;8451490;28;20039;-74
2022/12/27 03:59:34;;;;;;;1999.90;999.90;;;;;;;0.96;100.00;100413.38;8454927;28;20039;-74
2022/12/27 04:03:35;;;;;;;1999.90;999.90;;;;;;;0.90;100.00;100411.41;8459696;28;20051;-74
2022/12/27 04:07:37;;;;;;;1999.90;999.90;;;;;;;0.78;100.00;100417.56;8462834;28;20514;-74
2022/12/27 04:37:39;;;;;;;1999.90;999.90;;;;;;;0.78;100.00;100426.09;8438619;28;20144;-73
2022/12/27 04:54:57;;;;;;;1999.90;999.90;;;;;;;0.70;100.00;100431.59;8424498;28;20063;-73
2022/12/27 05:03:22;;;;;;;1999.90;999.90;;;;;;;0.39;100.00;100436.81;8436431;28;20084;-73
2022/12/27 05:16:04;;;;;;;1999.90;999.90;;;;;;;0.49;100.00;100439.91;8435980;28;20077;-73
2022/12/27 05:20:06;;;;;;;1999.90;999.90;;;;;;;0.47;100.00;100445.75;8424667;28;20045;-73
2022/12/27 05:28:27;;;;;;;1999.90;999.90;;;;;;;0.32;100.00;100455.16;8407447;28;20045;-73
2022/12/27 05:32:29;;;;;;;1999.90;999.90;;;;;;;0.36;100.00;100452.88;8433226;28;20194;-73
2022/12/27 05:36:31;;;;;;;1999.90;999.90;;;;;;;0.36;100.00;100457.06;8428860;28;20071;-73
2022/12/27 05:40:33;;;;;;;1999.90;999.90;;;;;;;0.33;100.00;100460.34;8453134;28;20118;-73
2022/12/27 05:44:34;;;;;;;1999.90;999.90;;;;;;;0.25;100.00;100459.06;8433635;28;20051;-73
2022/12/27 05:48:36;;;;;;;1999.90;999.90;;;;;;;0.22;100.00;100458.91;8422313;28;20043;-73
2022/12/27 05:52:37;;;;;;;1999.90;999.90;;;;;;;0.16;100.00;100458.56;8422380;28;20048;-73
2022/12/27 05:56:41;;;;;;;1999.90;999.90;;;;;;;0.14;100.00;100460.16;8429531;28;20073;-73
2022/12/27 06:00:43;;;;;;;1999.90;999.90;;;;;;;0.12;100.00;100467.72;8444719;28;20051;-73
2022/12/27 06:04:44;;;;;;;1999.90;999.90;;;;;;;0.17;100.00;100473.09;8433851;28;20048;-73
2022/12/27 06:08:46;;;;;;;1999.90;999.90;;;;;;;0.15;100.00;100478.09;8444346;28;20694;-72
2022/12/27 06:12:47;;;;;;;1999.90;999.90;;;;;;;0.12;100.00;100474.53;8414877;28;20059;-73
2022/12/27 06:16:49;;;;;;;1999.90;999.90;;;;;;;0.01;100.00;100481.63;8414600;28;20296;-73
2022/12/27 06:20:50;;;;;;;1999.90;999.90;;;;;;;-0.05;100.00;100468.50;8413020;28;20067;-73
2022/12/27 06:24:52;;;;;;;1999.90;999.90;;;;;;;-0.03;100.00;100472.00;8432105;28;20075;-73
2022/12/27 06:28:55;;;;;;;1999.90;999.90;;;;;;;0.01;100.00;100473.06;8429781;28;20052;-73
2022/12/27 06:32:56;;;;;;;1999.90;999.90;;;;;;;0.02;100.00;100479.94;8428166;28;20074;-73
2022/12/27 06:36:58;;;;;;;1999.90;999.90;;;;;;;-0.01;100.00;100478.06;8439058;28;20075;-73
2022/12/27 06:41:01;;;;;;;1999.90;999.90;;;;;;;0.01;100.00;100478.19;8439629;28;20060;-73
2022/12/27 06:45:08;;;;;;;1999.90;999.90;;;;;;;-0.06;100.00;100477.81;8454539;28;20046;-73
2022/12/27 06:49:10;;;;;;;1999.90;999.90;;;;;;;-0.07;100.00;100480.28;8408385;28;20123;-73
2022/12/27 06:53:11;;;;;;;1999.90;999.90;;;;;;;-0.07;100.00;100477.75;8401196;28;20036;-73
2022/12/27 06:57:13;;;;;;;1999.90;999.90;;;;;;;-0.11;100.00;100479.25;8391508;28;20954;-74
2022/12/27 07:01:20;;;;;;;1999.90;999.90;;;;;;;-0.16;100.00;100477.25;8403489;28;20049;-73
2022/12/27 07:05:21;;;;;;;1999.90;999.90;;;;;;;-0.20;100.00;100470.19;8416149;28;20055;-73
2022/12/27 07:09:23;;;;;;;1999.90;999.90;;;;;;;-0.16;100.00;100479.81;8411436;28;20058;-73
2022/12/27 07:13:24;;;;;;;1999.90;999.90;;;;;;;-0.07;100.00;100491.38;8416171;28;20437;-73
2022/12/27 07:17:26;;;;;;;1999.90;999.90;;;;;;;-0.03;100.00;100498.41;8396680;28;20048;-73
2022/12/27 07:21:28;;;;;;;1999.90;999.90;;;;;;;-0.03;100.00;100508.63;8407035;28;20042;-74
2022/12/27 07:25:31;;;;;;;1999.90;999.90;;;;;;;-0.02;100.00;100505.28;8404551;28;20036;-73
2022/12/27 07:29:32;;;;;;;1999.90;999.90;;;;;;;-0.07;100.00;100509.25;8423803;28;20059;-74
2022/12/27 07:33:35;;;;;;;1999.90;999.90;;;;;;;-0.06;100.00;100513.56;8432740;28;20047;-74
2022/12/27 07:37:36;;;;;;;1999.90;999.90;;;;;;;0.02;100.00;100511.44;8431215;28;20047;-73
2022/12/27 07:41:38;;;;;;;1999.90;999.90;;;;;;;0.11;100.00;100524.72;8428621;28;20631;-74
2022/12/27 07:45:39;;;;;;;1999.90;999.90;;;;;;;0.20;100.00;100521.78;8407520;28;20483;-73
2022/12/27 07:49:41;;;;;;;1999.90;999.90;;;;;;;0.21;100.00;100524.44;8393840;28;20153;-73
2022/12/27 07:53:42;;;;;;;1999.90;999.90;;;;;;;0.20;100.00;100529.47;8416175;28;20048;-74
2022/12/27 07:57:44;;;;;;;1999.90;999.90;;;;;;;0.18;100.00;100533.56;8400021;28;20051;-74
2022/12/27 08:02:03;;;;;;;1999.90;999.90;;;;;;;0.16;100.00;100536.03;8400866;28;20055;-75
2022/12/27 08:06:07;;;;;;;1999.90;999.90;;;;;;;0.16;100.00;100538.59;8428230;28;20118;-75
2022/12/27 08:10:09;;;;;;;1999.90;999.90;;;;;;;0.14;100.00;100537.63;8394370;28;20136;-75
2022/12/27 08:14:10;;;;;;;1999.90;999.90;;;;;;;0.27;100.00;100539.19;8428960;28;20126;-75
2022/12/27 08:18:12;;;;;;;1999.90;999.90;;;;;;;0.30;100.00;100542.78;8400383;28;20127;-74
2022/12/27 08:22:14;;;;;;;1999.90;999.90;;;;;;;0.45;100.00;100542.75;8393320;28;20566;-74
2022/12/27 08:26:15;;;;;;;1999.90;999.90;;;;;;;0.56;100.00;100557.00;8408338;28;20054;-75
2022/12/27 08:30:17;;;;;;;1999.90;999.90;;;;;;;0.63;100.00;100557.31;8430142;28;20130;-73
2022/12/27 08:34:18;;;;;;;1999.90;999.90;;;;;;;0.79;100.00;100557.34;8407265;28;20151;-74
2022/12/27 08:38:20;;;;;;;1999.90;999.90;;;;;;;0.96;100.00;100555.69;8403265;28;20066;-74
2022/12/27 08:42:21;;;;;;;1999.90;999.90;;;;;;;1.04;100.00;100564.63;8403479;28;20119;-74
2022/12/27 08:46:23;;;;;;;1999.90;999.90;;;;;;;0.98;100.00;100564.31;8390396;28;20143;-73
2022/12/27 08:50:25;;;;;;;1999.90;999.90;;;;;;;1.01;100.00;100564.47;8389051;28;20036;-76
2022/12/27 08:54:26;;;;;;;1999.90;999.90;;;;;;;1.09;100.00;100574.31;8414139;28;20040;-76
2022/12/27 08:58:28;;;;;;;1999.90;999.90;;;;;;;1.18;100.00;100569.66;8397640;28;20044;-76
2022/12/27 09:02:29;;;;;;;1999.90;999.90;;;;;;;1.29;100.00;100566.78;8424179;28;20044;-76
2022/12/27 09:06:31;;;;;;;1999.90;999.90;;;;;;;1.36;100.00;100579.09;8382683;28;20073;-76
2022/12/27 09:10:33;;;;;;;1999.90;999.90;;;;;;;1.46;100.00;100571.97;8394623;28;20044;-77
2022/12/27 09:14:34;;;;;;;1999.90;999.90;;;;;;;1.48;100.00;100566.91;8408954;28;20041;-76
2022/12/27 09:18:37;;;;;;;1999.90;999.90;;;;;;;1.68;100.00;100567.91;8388156;28;20043;-76
2022/12/27 09:22:38;;;;;;;;;;;;;;;1.89;100.00;100566.41;8403861;28;20048;-76
2022/12/27 09:26:40;;;;;;;1999.90;999.90;;;;;;;2.08;100.00;100566.50;8422579;28;19924;-75
2022/12/27 09:30:43;;;;;;;1999.90;999.90;;;;;;;2.33;100.00;100572.78;8420741;28;20379;-76
2022/12/27 09:34:44;;;;;;;;;;;;;;;2.48;100.00;100576.06;8399321;28;20060;-76
2022/12/27 09:38:47;;;;;;;1999.90;999.90;;;;;;;2.58;100.00;100580.84;8393191;28;19928;-74
2022/12/27 09:43:06;;;;;;;1999.90;999.90;;;;;;;2.62;100.00;100585.28;8429438;28;20174;-74
2022/12/27 09:48:02;;;;;;;1999.90;999.90;;;;;;;2.64;100.00;100582.78;8419734;28;20465;-75
2022/12/27 09:52:21;;;;;;;1999.90;999.90;;;;;;;2.69;100.00;100582.22;8396807;28;20058;-75
2022/12/27 09:56:26;;;;;;;1999.90;999.90;;;;;;;2.78;100.00;100581.75;8384134;28;21013;-75
2022/12/27 10:00:51;;;;;;;1999.90;999.90;;;;;;;2.92;100.00;100579.81;8418880;28;20071;-74
2022/12/27 10:04:55;;;;;;;1999.90;999.90;;;;;;;3.03;100.00;100576.03;8394377;28;20494;-74
2022/12/27 10:09:22;;;;;;;1999.90;999.90;;;;;;;3.15;100.00;100575.69;8398616;28;20074;-74
2022/12/27 10:13:34;;;;;;;1999.90;999.90;;;;;;;3.27;100.00;100568.56;8407430;28;20078;-75
2022/12/27 10:17:51;;;;;;;1999.90;999.90;;;;;;;3.36;100.00;100562.94;8400408;28;20065;-74
2022/12/27 10:22:22;;;;;;;1999.90;999.90;;;;;;;3.48;100.00;100559.19;8422449;28;20040;-75
2022/12/27 10:26:23;;;;;;;1999.90;999.90;;;;;;;3.57;100.00;100551.88;8402798;28;20040;-75
2022/12/27 10:30:27;;;;;;;1999.90;999.90;;;;;;;3.66;100.00;100548.81;8423928;28;20050;-75
2022/12/27 10:34:28;;;;;;;1999.90;999.90;;;;;;;3.79;100.00;100543.41;8404909;28;20136;-75
2022/12/27 10:38:34;;;;;;;1999.90;999.90;;;;;;;3.96;100.00;100540.63;8419038;28;20039;-75
2022/12/27 10:42:42;;;;;;;1999.90;999.90;;;;;;;4.10;100.00;100535.22;8425347;28;20383;-75
2022/12/27 10:46:50;;;;;;;1999.90;999.90;;;;;;;4.25;99.87;100540.09;8413485;28;20044;-75
2022/12/27 10:50:56;;;;;;;1999.90;999.90;;;;;;;4.43;100.00;100533.09;8416341;28;20044;-75
2022/12/27 10:54:57;;;;;;;1999.90;999.90;;;;;;;4.59;99.30;100543.97;8407782;28;20082;-75
2022/12/27 10:59:15;;;;;;;1999.90;999.90;;;;;;;4.74;99.38;100540.28;8422496;28;20040;-75
2022/12/27 11:03:17;;;;;;;1999.90;999.90;;;;;;;4.89;98.64;100542.53;8394656;28;20048;-75
2022/12/27 11:07:19;;;;;;;1999.90;999.90;;;;;;;5.03;97.82;100537.91;8386101;28;20768;-75
2022/12/27 11:11:23;;;;;;;1999.90;999.90;;;;;;;5.08;96.59;100538.94;8433796;28;20054;-75
2022/12/27 11:15:28;;;;;;;1999.90;999.90;;;;;;;5.11;96.70;100541.63;8404726;28;20045;-75
2022/12/27 11:19:29;;;;;;;1999.90;999.90;;;;;;;5.14;96.14;100534.88;8402600;28;20123;-75
2022/12/27 11:23:43;;;;;;;1999.90;999.90;;;;;;;5.18;95.37;100532.41;8412521;28;20067;-75
2022/12/27 11:27:47;;;;;;;1999.90;999.90;;;;;;;5.20;94.98;100529.06;8411754;28;20076;-75
2022/12/27 11:31:50;;;;;;;1999.90;999.90;;;;;;;5.26;94.90;100529.28;8415654;28;20380;-75
2022/12/27 11:35:55;;;;;;;1999.90;999.90;;;;;;;5.33;94.87;100530.38;8418434;28;20135;-75
2022/12/27 11:40:19;;;;;;;1999.90;999.90;;;;;;;5.40;94.41;100520.34;8422386;28;20046;-75
2022/12/27 11:44:31;;;;;;;1999.90;999.90;;;;;;;5.47;94.47;100524.00;8420054;28;20047;-75
2022/12/27 11:48:39;;;;;;;1999.90;999.90;;;;;;;5.49;94.13;100516.31;8419417;28;20039;-75
2022/12/27 11:52:52;;;;;;;1999.90;999.90;;;;;;;5.51;93.75;100515.56;8385603;28;20373;-75
2022/12/27 11:57:07;;;;;;;1999.90;999.90;;;;;;;5.57;94.28;100512.31;8403896;28;20131;-75
2022/12/27 12:01:30;;;;;;;1999.90;999.90;;;;;;;5.62;93.67;100498.75;8398260;28;20440;-75
2022/12/27 12:05:49;;;;;;;1999.90;999.90;;;;;;;5.66;94.08;100497.16;8387603;28;20043;-76
2022/12/27 12:10:20;;;;;;;1999.90;999.90;;;;;;;5.76;94.28;100497.53;8382729;28;20075;-76
2022/12/27 12:14:59;;;;;;;1999.90;999.90;;;;;;;5.85;94.75;100507.25;8368789;28;20117;-76
2022/12/27 12:19:16;;;;;;;1999.90;999.90;;;;;;;5.85;94.56;100494.34;8360357;28;20083;-76
2022/12/27 12:23:52;;;;;;;1999.90;999.90;;;;;;;5.85;94.23;100493.47;8380597;28;20048;-75
2022/12/27 12:28:15;;;;;;;1999.90;999.90;;;;;;;5.85;94.52;100501.22;8395499;28;20040;-76
2022/12/27 12:32:58;;;;;;;1999.90;999.90;;;;;;;5.80;93.23;100503.66;8381884;28;20102;-76
2022/12/27 12:37:13;;;;;;;1999.90;999.90;;;;;;;5.84;93.46;100496.88;8398125;28;21235;-75
2022/12/27 12:41:34;;;;;;;1999.90;999.90;;;;;;;5.84;92.92;100500.34;8387781;28;20119;-75
2022/12/27 12:45:59;;;;;;;1999.90;999.90;;;;;;;5.85;92.05;100504.66;8378631;28;20040;-75
2022/12/27 12:50:20;;;;;;;1999.90;999.90;;;;;;;5.82;91.53;100508.84;8376968;28;20224;-75
2022/12/27 12:54:47;;;;;;;1999.90;999.90;;;;;;;5.75;91.26;100510.34;8379615;28;20133;-75
2022/12/27 12:59:11;;;;;;;1999.90;999.90;;;;;;;5.76;91.81;100512.09;8379838;28;20357;-75
2022/12/27 13:03:38;;;;;;;1999.90;999.90;;;;;;;5.76;91.22;100510.41;8390269;28;20043;-75
2022/12/27 13:08:00;;;;;;;1999.90;999.90;;;;;;;5.77;91.04;100503.56;8389284;28;20608;-75
2022/12/27 13:12:15;;;;;;;1999.90;999.90;;;;;;;5.79;92.09;100495.88;8388077;28;20373;-75
2022/12/27 13:16:32;;;;;;;1999.90;999.90;;;;;;;5.82;93.46;100488.22;8367270;28;20048;-75
2022/12/27 13:20:54;;;;;;;1999.90;999.90;;;;;;;5.86;94.52;100490.06;8380089;28;20064;-75
2022/12/27 13:25:12;;;;;;;1999.90;999.90;;;;;;;5.88;94.97;100480.69;8382310;28;20048;-75
2022/12/27 13:29:54;;;;;;;1999.90;999.90;;;;;;;5.85;94.66;100465.13;8377677;28;20050;-75
2022/12/27 13:34:33;;;;;;;1999.90;999.90;;;;;;;5.90;94.63;100455.88;8376560;28;20497;-75
2022/12/27 13:38:47;;;;;;;1999.90;999.90;;;;;;;5.94;93.70;100443.16;8380536;28;20388;-75
2022/12/27 13:43:10;;;;;;;1999.90;999.90;;;;;;;5.93;93.32;100435.38;8367279;28;20483;-75
2022/12/27 13:47:41;;;;;;;1999.90;999.90;;;;;;;5.96;93.68;100438.91;8369529;28;20048;-75
2022/12/27 13:51:45;;;;;;;1999.90;999.90;;;;;;;5.96;93.58;100433.75;8372376;28;20385;-76
2022/12/27 13:56:16;;;;;;;1999.90;999.90;;;;;;;5.90;93.17;100422.34;8375715;28;20587;-75
2022/12/27 14:00:49;;;;;;;1999.90;999.90;;;;;;;5.82;92.35;100418.66;8387217;28;20052;-76
2022/12/27 14:05:24;;;;;;;1999.90;999.90;;;;;;;5.77;92.73;100415.94;8386545;28;20132;-75
2022/12/27 14:10:05;;;;;;;1999.90;999.90;;;;;;;5.73;93.11;100414.94;8365950;28;20048;-75
2022/12/27 14:14:11;;;;;;;1999.90;999.90;;;;;;;5.69;93.11;100419.97;8385816;28;20050;-75
2022/12/27 14:18:31;;;;;;;1999.90;999.90;;;;;;;5.61;93.12;100408.53;8362766;28;20432;-75
2022/12/27 14:22:52;;;;;;;1999.90;999.90;;;;;;;5.59;93.19;100399.91;8406813;28;20087;-75
2022/12/27 14:27:45;;;;;;;1999.90;999.90;;;;;;;5.59;93.30;100405.94;8417242;28;20476;-75
2022/12/27 14:32:07;;;;;;;1999.90;999.90;;;;;;;5.50;93.65;100397.88;8399492;28;20052;-75
2022/12/27 14:36:45;;;;;;;1999.90;999.90;;;;;;;5.37;94.03;100404.34;8432763;28;20147;-75
2022/12/27 14:40:56;;;;;;;1999.90;999.90;;;;;;;5.29;94.23;100410.06;8431946;28;20050;-76
2022/12/27 14:45:12;;;;;;;1999.90;999.90;;;;;;;5.21;94.30;100411.53;8386718;28;20052;-75
2022/12/27 14:49:32;;;;;;;1999.90;999.90;;;;;;;5.09;95.24;100419.72;8395392;28;20044;-75
2022/12/27 14:53:52;;;;;;;1999.90;999.90;;;;;;;5.01;95.24;100424.56;8433493;28;20116;-75
2022/12/27 14:57:53;;;;;;;1999.90;999.90;;;;;;;5.00;95.15;100424.53;8415353;28;20043;-75
2022/12/27 15:01:55;;;;;;;1999.90;999.90;;;;;;;4.95;95.52;100419.22;8383510;28;20040;-75
2022/12/27 15:06:02;;;;;;;1999.90;999.90;;;;;;;4.82;95.45;100396.47;8393030;28;20814;-76
2022/12/27 15:10:19;;;;;;;1999.90;999.90;;;;;;;4.64;95.56;100409.56;8389575;28;20047;-76
2022/12/27 15:14:45;;;;;;;1999.90;999.90;;;;;;;4.57;96.48;100409.28;8386059;28;20054;-76
2022/12/27 15:19:06;;;;;;;1999.90;999.90;;;;;;;4.50;96.52;100418.50;8395375;28;20055;-75
2022/12/27 15:23:30;;;;;;;1999.90;999.90;;;;;;;4.41;96.90;100413.00;8401218;28;20040;-76
2022/12/27 15:27:41;;;;;;;;;;;;;;;4.22;97.42;100407.19;8435885;28;20035;-76
2022/12/27 15:31:58;;;;;;;1999.90;999.90;;;;;;;4.13;97.61;100399.16;8415588;28;19963;-76
2022/12/27 15:36:13;;;;;;;1999.90;999.90;;;;;;;4.06;97.97;100406.53;8370530;28;20063;-75
2022/12/27 15:40:33;;;;;;;1999.90;999.90;;;;;;;3.96;98.38;100392.50;8371592;28;20041;-75
2022/12/27 15:45:09;;;;;;;1999.90;999.90;;;;;;;3.85;98.09;100386.94;8367794;28;20368;-76
2022/12/27 15:49:45;;;;;;;1999.90;999.90;;;;;;;3.72;98.83;100386.38;8377571;28;20174;-75
2022/12/27 15:54:07;;;;;;;1999.90;999.90;;;;;;;3.76;99.86;100401.09;8379670;28;20136;-76
2022/12/27 15:58:19;;;;;;;1999.90;999.90;;;;;;;3.77;99.59;100401.19;8400936;28;20044;-76
2022/12/27 16:02:27;;;;;;;1999.90;999.90;;;;;;;3.60;98.78;100397.97;8400271;28;20135;-74
2022/12/27 16:06:34;;;;;;;1999.90;999.90;;;;;;;3.50;98.79;100400.97;8412658;28;20631;-75
2022/12/27 16:10:38;;;;;;;1999.90;999.90;;;;;;;3.38;99.23;100410.72;8421926;28;20051;-75
2022/12/27 16:14:42;;;;;;;1999.90;999.90;;;;;;;3.31;98.99;100412.19;8419385;28;20048;-75
2022/12/27 16:19:10;;;;;;;1999.90;999.90;;;;;;;3.16;98.68;100405.53;8401581;28;20381;-74
2022/12/27 16:23:11;;;;;;;1999.90;999.90;;;;;;;3.09;99.05;100398.41;8402207;28;20042;-73
2022/12/27 16:27:27;;;;;;;1999.90;999.90;;;;;;;2.96;99.15;100399.56;8404281;28;20047;-74
2022/12/27 16:31:30;;;;;;;1999.90;999.90;;;;;;;2.91;99.55;100390.81;8420441;28;20095;-73
2022/12/27 16:35:32;;;;;;;1999.90;999.90;;;;;;;2.80;99.51;100394.59;8409963;28;20469;-74
2022/12/27 16:39:53;;;;;;;1999.90;999.90;;;;;;;2.72;99.94;100387.47;8405998;28;20130;-73
2022/12/27 16:44:00;;;;;;;1999.90;999.90;;;;;;;2.69;100.00;100381.31;8407536;28;20135;-73
2022/12/27 16:48:46;;;;;;;1999.90;999.90;;;;;;;2.66;100.00;100378.63;8390031;28;20047;-73
2022/12/27 16:53:06;;;;;;;1999.90;999.90;;;;;;;2.58;100.00;100372.31;8383211;28;20051;-74
2022/12/27 16:57:23;;;;;;;1999.90;999.90;;;;;;;2.59;100.00;100377.50;8387380;28;20040;-73
2022/12/27 17:01:25;;;;;;;1999.90;999.90;;;;;;;2.69;100.00;100377.09;8410378;28;20062;-74
2022/12/27 17:05:35;;;;;;;1999.90;999.90;;;;;;;2.69;100.00;100374.53;8399751;28;20048;-76
2022/12/27 17:09:39;;;;;;;1999.90;999.90;;;;;;;2.75;100.00;100370.47;8380130;28;20040;-76
2022/12/27 17:13:55;;;;;;;1999.90;999.90;;;;;;;2.65;100.00;100371.75;8402058;28;20324;-77
2022/12/27 17:18:07;;;;;;;1999.90;999.90;;;;;;;2.64;100.00;100372.56;8410281;28;20235;-74
2022/12/27 17:22:14;;;;;;;1999.90;999.90;;;;;;;2.76;100.00;100367.97;8404372;28;20044;-74
2022/12/27 17:26:32;;;;;;;1999.90;999.90;;;;;;;2.84;100.00;100365.72;8407459;28;20050;-74
2022/12/27 17:31:03;;;;;;;1999.90;999.90;;;;;;;2.98;100.00;100365.47;8412843;28;20104;-74
2022/12/27 17:35:30;;;;;;;1999.90;999.90;;;;;;;2.83;100.00;100356.25;8408228;28;20048;-74
2022/12/27 17:39:51;;;;;;;1999.90;999.90;;;;;;;2.85;100.00;100355.50;8387539;28;20044;-74
2022/12/27 17:48:29;;;;;;;1999.90;999.90;;;;;;;2.65;100.00;100349.53;8396389;28;20055;-74
2022/12/27 18:01:19;;;;;;;1999.90;999.90;;;;;;;2.12;100.00;100347.22;8398145;28;20066;-74
2022/12/27 18:05:29;;;;;;;1999.90;999.90;;;;;;;1.97;100.00;100346.53;8389935;28;20047;-74
2022/12/27 18:09:38;;;;;;;1999.90;999.90;;;;;;;1.90;100.00;100341.94;8405402;28;20138;-74
2022/12/27 18:13:49;;;;;;;1999.90;999.90;;;;;;;1.78;100.00;100342.25;8388668;28;20139;-74
2022/12/27 18:17:56;;;;;;;1999.90;999.90;;;;;;;1.66;100.00;100332.34;8415645;28;20117;-74
2022/12/27 18:22:00;;;;;;;1999.90;999.90;;;;;;;1.50;100.00;100325.63;8421029;28;20068;-74
2022/12/27 18:26:08;;;;;;;1999.90;999.90;;;;;;;1.44;100.00;100320.25;8411250;28;20046;-75
2022/12/27 18:30:14;;;;;;;1999.90;999.90;;;;;;;1.37;100.00;100312.19;8409423;28;20039;-75
2022/12/27 18:34:32;;;;;;;1999.90;999.90;;;;;;;1.33;100.00;100308.63;8430161;28;20130;-76
2022/12/27 18:38:38;;;;;;;1999.90;999.90;;;;;;;1.24;100.00;100308.16;8425526;28;20071;-76
2022/12/27 18:42:43;;;;;;;1999.90;999.90;;;;;;;1.18;100.00;100301.09;8411951;28;20068;-76
2022/12/27 18:46:48;;;;;;;1999.90;999.90;;;;;;;1.16;100.00;100294.16;8379441;28;20051;-75
2022/12/27 18:50:52;;;;;;;1999.90;999.90;;;;;;;1.13;100.00;100288.91;8413319;28;20067;-75
2022/12/27 18:54:54;;;;;;;1999.90;999.90;;;;;;;1.09;100.00;100284.44;8394354;28;20127;-75
2022/12/27 18:59:15;;;;;;;1999.90;999.90;;;;;;;1.11;100.00;100293.06;8396949;28;20126;-75
2022/12/27 19:03:19;;;;;;;1999.90;999.90;;;;;;;1.03;100.00;100281.59;8409715;28;20387;-74
2022/12/27 19:07:20;;;;;;;1999.90;999.90;;;;;;;0.93;100.00;100284.53;8402674;28;20575;-74
2022/12/27 19:11:25;;;;;;;1999.90;999.90;;;;;;;0.80;100.00;100272.81;8399887;28;20147;-74
2022/12/27 19:15:41;;;;;;;1999.90;999.90;;;;;;;0.81;100.00;100259.22;8420778;28;20159;-74
2022/12/27 19:19:50;;;;;;;1999.90;999.90;;;;;;;0.71;100.00;100246.78;8397219;28;20499;-74
2022/12/27 19:23:51;;;;;;;1999.90;999.90;;;;;;;0.71;100.00;100242.56;8411282;28;20576;-74
2022/12/27 19:28:08;;;;;;;1999.90;999.90;;;;;;;0.72;100.00;100241.78;8407126;28;20042;-74
2022/12/27 19:32:09;;;;;;;1999.90;999.90;;;;;;;0.72;100.00;100246.00;8413366;28;20745;-74
2022/12/27 19:36:12;;;;;;;1999.90;999.90;;;;;;;0.70;100.00;100245.03;8391677;28;20047;-74
2022/12/27 19:40:14;;;;;;;1999.90;999.90;;;;;;;0.69;100.00;100243.28;8412059;28;20032;-74
2022/12/27 19:44:16;;;;;;;1999.90;999.90;;;;;;;0.66;100.00;100231.25;8430907;28;20129;-74
2022/12/27 19:48:17;;;;;;;1999.90;999.90;;;;;;;0.60;100.00;100226.72;8397770;28;20147;-74
2022/12/27 19:52:25;;;;;;;1999.90;999.90;;;;;;;0.54;100.00;100225.56;8413868;28;20132;-75
2022/12/27 19:56:27;;;;;;;1999.90;999.90;;;;;;;0.49;100.00;100224.44;8426571;28;20075;-74
2022/12/27 20:00:28;;;;;;;1999.90;999.90;;;;;;;0.42;100.00;100217.28;8433504;28;20036;-74
2022/12/27 20:04:30;;;;;;;1999.90;999.90;;;;;;;0.40;100.00;100212.13;8395254;28;20048;-74
2022/12/27 20:08:35;;;;;;;1999.90;999.90;;;;;;;0.35;100.00;100207.56;8419379;28;20046;-73